Terminal Aerodrome Forecast
Issued by NWS Cleveland, OH

Home | Current Version | Previous Version | Graphics & Text | Print | Product List | Glossary Off
Versions: 1 2 3 4 5 6 7 8 9 10 11 12 13 14 15 16 17 18 19 20 21 22 23 24 25 26 27 28 29 30

000
FTUS41 KCLE 010800 AAA
TAFCLE
TAF AMD
KCLE 010856Z 0109/0212 20005KT P6SM SCT008 BKN050
      TEMPO 0110/0113 5SM BR BKN008
     FM011400 21008KT 6SM HZ SCT012 BKN035
      TEMPO 0114/0116 BKN015
     FM011800 21012G18KT P6SM SCT045
     FM020200 20010KT P6SM SCT035 BKN120
     FM020600 20010KT 6SM HZ VCTS BKN035CB=

USA.gov is the U.S. government's official web portal to all federal, state and local government web resources and services.